Latest Weather Observations for Mount Nowa Nowa

IDV60801

Issued at 4:22 pm EST Saturday 20 July 2024 (issued every 10 minutes, with the page automatically refreshed every 10 minutes)

About weather observations | Map of weather stations | Latest weather observations for VIC | Other Formats
Station Details ID: 084144 Name: MOUNT NOWA NOWA Lat: -37.69 Lon: 148.09 Height: 350.0 m
Data from the previous 72 hours. | See also: Recent months at Mount Nowa Nowa
Date/Time
EST
Temp
°C
App
Temp
°C
Dew
Point
°C
Rel
Hum
%
Delta-T
°C
Wind Press
QNH
hPa
Press
MSL
hPa
Rain since
9am
mm
Dir  Spd
km/h
Gust
km/h
Spd
kts
Gust
kts
20/04:00pm 7.1 2.8 5.1 87 0.9 WNW 17 39 9 21 - - 1.6
20/03:30pm 6.9 3.0 5.4 90 0.7 WNW 15 26 8 14 - - 1.4
20/03:00pm 6.9 2.1 5.4 90 0.7 W 20 44 11 24 - - 1.0
20/02:30pm 9.2 5.0 3.8 69 2.4 WNW 15 28 8 15 - - 0.0
20/02:00pm 10.2 5.8 2.8 60 3.2 WNW 15 32 8 17 - - 0.0
20/01:30pm 10.4 5.6 2.7 59 3.4 WNW 17 32 9 17 - - 0.0
20/01:00pm 10.8 6.5 3.4 60 3.3 WNW 15 24 8 13 - - 0.0
20/12:30pm 10.6 5.4 2.7 58 3.5 WNW 19 37 10 20 - - 0.0
20/12:00pm 10.8 5.7 3.1 59 3.4 WNW 19 39 10 21 - - 0.0
20/11:30am 10.7 6.0 3.3 60 3.3 WNW 17 28 9 15 - - 0.0
20/11:00am 11.3 8.2 5.4 67 2.8 WNW 11 28 6 15 - - 0.0
20/10:30am 10.3 6.3 4.9 69 2.5 WNW 15 32 8 17 - - 0.0
20/10:00am 9.6 5.1 4.4 70 2.4 NW 17 30 9 16 - - 0.0
20/09:30am 9.5 5.0 4.1 69 2.4 NW 17 28 9 15 - - 0.0
20/09:00am 9.2 5.0 4.0 70 2.3 NW 15 24 8 13 - - 0.0
20/08:30am 9.0 4.8 3.6 69 2.4 NW 15 24 8 13 - - 0.0
20/08:00am 8.6 4.0 3.6 71 2.2 NW 17 26 9 14 - - 0.0
20/07:30am 8.5 3.5 3.4 70 2.2 NW 19 28 10 15 - - 0.0
20/07:00am 8.8 3.8 3.6 70 2.3 NW 19 39 10 21 - - 0.0
20/06:30am 8.7 3.7 3.5 70 2.3 NW 19 33 10 18 - - 0.0
20/06:00am 9.2 3.7 3.8 69 2.4 NW 22 41 12 22 - - 0.0
20/05:30am 8.6 4.4 3.6 71 2.2 NW 15 26 8 14 - - 0.0
20/05:00am 8.9 4.3 3.7 70 2.3 NW 17 33 9 18 - - 0.0
20/04:30am 8.3 4.4 3.4 71 2.1 WNW 13 20 7 11 - - 0.0
20/04:00am 9.0 3.4 3.2 67 2.5 NW 22 39 12 21 - - 0.0
20/03:30am 9.2 3.6 3.2 66 2.6 NW 22 46 12 25 - - 0.0
20/03:00am 9.3 3.7 3.3 66 2.6 NW 22 48 12 26 - - 0.0
20/02:30am 9.7 1.2 3.4 65 2.8 NNW 37 61 20 33 - - 0.0
20/02:00am 9.9 1.4 3.2 63 3.0 NNW 37 61 20 33 - - 0.0
20/01:30am 10.1 3.0 3.4 63 3.0 NW 30 52 16 28 - - 0.0
20/01:03am 10.6 3.5 3.6 62 3.1 NW 30 52 16 28 - - 0.0
20/01:00am 10.4 3.3 3.7 63 3.0 NW 30 46 16 25 - - 0.0
20/12:30am 10.6 2.9 3.4 61 3.2 NW 33 54 18 29 - - 0.0
20/12:00am 10.7 3.2 3.3 60 3.3 NW 32 57 17 31 - - 0.0
 
Date/Time
EST
Temp
°C
App
Temp
°C
Dew
Point
°C
Rel
Hum
%
Delta-T
°C
Wind Press
QNH
hPa
Press
MSL
hPa
Rain since
9am
mm
Dir  Spd
km/h
Gust
km/h
Spd
kts
Gust
kts
19/11:39pm 10.4 3.6 3.2 61 3.2 NNW 28 50 15 27 - - 0.0
19/11:30pm 10.2 3.8 3.3 62 3.1 NNW 26 44 14 24 - - 0.0
19/11:12pm 10.7 3.9 3.3 60 3.3 NNW 28 54 15 29 - - 0.0
19/11:00pm 10.7 4.3 3.3 60 3.3 NNW 26 44 14 24 - - 0.0
19/10:37pm 10.5 3.7 3.1 60 3.3 NNW 28 48 15 26 - - 0.0
19/10:30pm 10.4 4.3 2.7 59 3.4 NNW 24 37 13 20 - - 0.0
19/10:00pm 10.1 4.7 2.5 59 3.3 NNW 20 32 11 17 - - 0.0
19/09:30pm 9.6 4.8 2.5 61 3.1 NNW 17 28 9 15 - - 0.0
19/09:00pm 9.5 3.4 2.8 63 2.9 NNW 24 43 13 23 - - 0.0
19/08:30pm 9.7 3.1 2.3 60 3.2 NNW 26 43 14 23 - - 0.0
19/08:07pm 9.6 2.7 2.7 62 3.0 NNW 28 50 15 27 - - 0.0
19/08:00pm 9.4 3.3 2.9 64 2.8 NNW 24 43 13 23 - - 0.0
19/07:30pm 9.5 4.1 2.6 62 3.0 NW 20 37 11 20 - - 0.0
19/07:00pm 9.6 4.1 2.0 59 3.3 NNW 20 37 11 20 - - 0.0
19/06:30pm 9.6 - - - - NNW 30 52 16 28 - - 0.0
19/06:17pm 9.4 - - - - NNW 28 48 15 26 - - 0.0
19/06:00pm 9.4 - - - - NNW 26 44 14 24 - - 0.0
19/05:39pm 9.3 2.5 3.0 65 2.8 NNW 28 48 15 26 - - 0.0
19/05:30pm 9.2 2.7 2.8 64 2.8 NNW 26 43 14 23 - - 0.0
19/05:00pm 9.2 - - - - NNW 24 39 13 21 - - 0.0
19/04:31pm 9.3 - - - - NNW 32 50 17 27 - - 0.0
19/04:30pm 9.3 - - - - NNW 33 50 18 27 - - 0.0
19/04:03pm 9.0 1.2 2.6 64 2.8 NNW 33 52 18 28 - - 0.0
19/04:00pm 9.1 0.8 2.0 61 3.0 NNW 35 52 19 28 - - 0.0
19/03:30pm 9.2 1.5 2.1 61 3.0 NNW 32 57 17 31 - - 0.0
19/03:02pm 9.0 - - - - NNW 32 54 17 29 - - 0.0
19/03:00pm 8.8 - - - - NNW 32 44 17 24 - - 0.0
19/02:30pm 9.2 3.5 2.8 64 2.8 NNW 22 32 12 17 - - 0.0
19/02:00pm 9.2 3.5 2.6 63 2.9 NNW 22 35 12 19 - - 0.0
19/01:30pm 10.3 - - - - NW 19 39 10 21 - - 0.0
19/01:00pm 9.5 4.0 1.9 59 3.2 NW 20 39 11 21 - - 0.0
19/12:39pm 9.5 2.5 1.9 59 3.2 NW 28 46 15 25 - - 0.0
19/12:30pm 9.5 3.3 1.9 59 3.2 NW 24 46 13 25 - - 0.0
19/12:00pm 9.4 2.8 1.8 59 3.2 NW 26 41 14 22 - - 0.0
19/11:30am 9.6 3.0 2.0 59 3.3 NW 26 46 14 25 - - 0.0
19/11:00am 8.6 2.4 2.2 64 2.7 NNW 24 39 13 21 - - 0.0
19/10:30am 8.2 1.5 1.6 63 2.8 NW 26 39 14 21 - - 0.0
19/10:00am 7.4 -0.1 1.5 66 2.4 NNW 30 43 16 23 - - 0.0
19/09:30am 7.0 -0.5 0.9 65 2.5 NNW 30 43 16 23 - - 0.0
19/09:00am 6.3 -0.9 0.6 67 2.3 NW 28 43 15 23 - - 0.2
19/08:30am 5.8 -0.7 0.6 69 2.1 NW 24 35 13 19 - - 0.2
19/08:00am 5.8 -0.3 0.2 67 2.2 NNW 22 33 12 18 - - 0.2
19/07:30am 5.0 -1.9 0.2 71 1.9 NW 26 35 14 19 - - 0.2
19/07:00am 4.4 -1.4 0.0 73 1.7 NW 20 28 11 15 - - 0.2
19/06:30am 4.9 -0.7 -0.1 70 1.9 NNW 19 26 10 14 - - 0.2
19/06:00am 4.6 -1.2 0.0 72 1.8 NNW 20 28 11 15 - - 0.2
19/05:30am 4.4 -1.2 -0.2 72 1.8 NNW 19 26 10 14 - - 0.2
19/05:00am 4.2 -1.6 0.2 75 1.6 NNW 20 28 11 15 - - 0.2
19/04:30am 4.1 -1.4 0.4 77 1.4 NNW 19 24 10 13 - - 0.2
19/04:00am 4.2 -1.8 0.9 79 1.3 NW 22 28 12 15 - - 0.2
19/03:30am 4.0 -2.0 1.2 82 1.1 NW 22 30 12 16 - - 0.2
19/03:00am 3.8 -1.8 1.4 84 1.0 NW 20 30 11 16 - - 0.2
19/02:30am 3.8 -1.6 2.2 89 0.6 NW 20 26 11 14 - - 0.2
19/02:00am 3.3 0.0 2.6 95 0.3 WNW 9 17 5 9 - - 0.2
19/01:30am 3.4 0.5 2.5 94 0.4 WNW 7 9 4 5 - - 0.2
19/01:00am 3.1 -0.2 2.2 94 0.4 WNW 9 13 5 7 - - 0.2
19/12:30am 3.3 -0.8 2.0 91 0.5 WNW 13 17 7 9 - - 0.2
19/12:00am 3.9 -0.7 1.8 86 0.8 W 15 19 8 10 - - 0.2
 
Date/Time
EST
Temp
°C
App
Temp
°C
Dew
Point
°C
Rel
Hum
%
Delta-T
°C
Wind Press
QNH
hPa
Press
MSL
hPa
Rain since
9am
mm
Dir  Spd
km/h
Gust
km/h
Spd
kts
Gust
kts
18/11:30pm 4.1 -0.4 2.3 88 0.7 W 15 22 8 12 - - 0.2
18/11:00pm 4.3 - - - - W 15 24 8 13 - - 0.2
18/10:30pm 4.1 -0.2 3.2 94 0.4 W 15 22 8 12 - - 0.2
18/10:00pm 4.2 0.6 3.2 93 0.4 W 11 17 6 9 - - 0.2
18/09:30pm 4.6 0.0 3.7 94 0.4 W 17 28 9 15 - - 0.2
18/09:00pm 4.8 0.1 3.3 90 0.6 W 17 30 9 16 - - 0.2
18/08:30pm 5.0 -0.1 3.2 88 0.8 W 19 30 10 16 - - 0.2
18/08:00pm 4.9 0.2 3.1 88 0.8 W 17 30 9 16 - - 0.2
18/07:30pm 5.2 1.0 3.7 90 0.6 W 15 24 8 13 - - 0.2
18/07:00pm 5.3 1.1 4.0 91 0.6 W 15 24 8 13 - - 0.2
18/06:30pm 5.5 1.8 4.5 93 0.4 W 13 20 7 11 - - 0.2
18/06:00pm 5.6 2.7 4.7 94 0.4 W 9 13 5 7 - - 0.2
18/05:30pm 6.0 3.1 4.6 91 0.6 W 9 13 5 7 - - 0.2
18/05:00pm 6.9 3.2 4.6 85 1.0 W 13 20 7 11 - - 0.2
18/04:30pm 6.9 3.8 5.5 91 0.6 W 11 22 6 12 - - 0.2
18/04:00pm 7.6 4.0 5.2 85 1.1 W 13 22 7 12 - - 0.2
18/03:30pm 7.8 3.8 4.9 82 1.3 W 15 30 8 16 - - 0.2
18/03:00pm 8.9 5.1 5.8 81 1.4 W 15 35 8 19 - - 0.2
18/02:30pm 8.4 4.8 5.0 79 1.5 W 13 28 7 15 - - 0.2
18/02:00pm 9.0 5.6 6.1 82 1.4 W 13 24 7 13 - - 0.2
18/01:30pm 8.1 4.5 5.0 81 1.4 W 13 26 7 14 - - 0.2
18/01:00pm 8.6 4.0 3.6 71 2.2 W 17 33 9 18 - - 0.2
18/12:30pm 7.5 2.9 3.7 77 1.7 WSW 17 33 9 18 - - 0.2
18/12:00pm 8.1 3.7 4.7 79 1.5 WSW 17 35 9 19 - - 0.2
18/11:30am 7.7 3.3 4.7 81 1.3 W 17 30 9 16 - - 0.2
18/11:00am 7.3 2.9 5.0 85 1.0 W 17 35 9 19 - - 0.2
18/10:30am 7.3 2.7 5.4 88 0.9 W 19 33 10 18 - - 0.0
18/10:00am 7.1 3.0 6.0 93 0.5 W 17 28 9 15 - - 0.0
18/09:30am 5.8 1.6 5.5 98 0.1 W 17 28 9 15 - - 0.0
18/09:00am 5.5 0.8 5.2 98 0.1 W 19 32 10 17 - - 8.2
18/08:30am 5.5 0.7 4.6 94 0.4 W 19 39 10 21 - - 8.0
18/08:00am 5.5 0.1 4.6 94 0.4 W 22 37 12 20 - - 8.0
18/07:30am 5.3 0.9 4.6 95 0.3 W 17 28 9 15 - - 8.0
18/07:00am 5.6 1.1 4.4 92 0.5 W 17 30 9 16 - - 8.0
18/06:30am 5.6 0.6 4.6 93 0.4 WSW 20 39 11 21 - - 8.0
18/06:00am 5.5 0.6 5.1 97 0.2 WSW 20 37 11 20 - - 8.0
18/05:30am 5.3 0.5 4.7 96 0.3 W 19 33 10 18 - - 8.0
18/05:00am 5.6 1.3 5.3 98 0.1 W 17 32 9 17 - - 8.0
18/04:30am 5.9 1.3 5.8 99 0.0 W 19 32 10 17 - - 8.0
18/04:00am 6.2 2.1 6.1 99 0.0 W 17 32 9 17 - - 8.0
18/03:30am 6.4 2.3 6.4 100 0.0 W 17 28 9 15 - - 8.0
18/03:00am 6.4 2.0 6.4 100 0.0 W 19 33 10 18 - - 8.0
18/02:30am 6.7 2.7 6.6 99 0.0 W 17 32 9 17 - - 8.0
18/02:00am 6.9 3.0 6.9 100 0.0 W 17 26 9 14 - - 8.0
18/01:30am 6.9 4.1 6.8 99 0.0 W 11 26 6 14 - - 7.8
18/01:00am 6.9 4.1 6.9 100 0.0 NW 11 15 6 8 - - 6.2
18/12:30am 6.9 4.1 6.8 99 0.0 NW 11 13 6 7 - - 6.2
18/12:00am 6.9 4.1 6.8 99 0.0 NW 11 15 6 8 - - 6.2
 
Date/Time
EST
Temp
°C
App
Temp
°C
Dew
Point
°C
Rel
Hum
%
Delta-T
°C
Wind Press
QNH
hPa
Press
MSL
hPa
Rain since
9am
mm
Dir  Spd
km/h
Gust
km/h
Spd
kts
Gust
kts
17/11:30pm 7.0 3.8 6.9 99 0.0 NW 13 17 7 9 - - 6.2
17/11:00pm 7.1 4.7 7.1 100 0.0 NW 9 13 5 7 - - 6.2
17/10:30pm 7.2 4.8 7.2 100 0.0 NW 9 13 5 7 - - 6.2
17/10:00pm 7.3 5.3 7.3 100 0.0 NNW 7 11 4 6 - - 6.2
17/09:30pm 7.3 5.3 7.3 100 0.0 NW 7 11 4 6 - - 6.2
17/09:00pm 7.4 5.4 7.3 99 0.0 NW 7 11 4 6 - - 6.2
17/08:30pm 7.5 5.6 7.4 99 0.0 NW 7 9 4 5 - - 6.2
17/08:00pm 7.3 5.9 7.2 99 0.0 WNW 4 7 2 4 - - 6.2
17/07:30pm 7.1 5.7 7.1 100 0.0 SSW 4 7 2 4 - - 6.2
17/07:00pm 7.5 5.8 7.5 100 0.0 W 6 9 3 5 - - 6.2
17/06:30pm 7.8 6.2 7.8 100 0.0 W 6 7 3 4 - - 6.2
17/06:00pm 7.9 6.3 7.9 100 0.0 WSW 6 9 3 5 - - 6.0
17/05:30pm 8.1 6.9 8.1 100 0.0 WSW 4 9 2 5 - - 6.0
17/05:00pm 8.4 7.3 8.4 100 0.0 WSW 4 9 2 5 - - 6.0
17/04:30pm 8.6 7.5 8.6 100 0.0 WSW 4 9 2 5 - - 6.0

Other formats

Comma delimited format used in spreadsheet applications
http://www.bom.gov.au/fwo/IDV60801/IDV60801.94930.axf

JavaScript Object Notation format (JSON) in row-major order
http://www.bom.gov.au/fwo/IDV60801/IDV60801.94930.json

Data quality

Most of these data are generated automatically and are frequently updated. Quality checks on data are not normally performed. It is possible for incorrect values to appear. Refer to information at About Latest Weather Observations and please check the disclaimer before using these data.